Time;durP1;ratioP1;P1;durP2;ratioP2;P2;SDS_P1;SDS_P2;PMS_P1;PMS_P2;Temp;Humidity;BMP_temperature;BMP_pressure;BME280_temperature;BME280_humidity;BME280_pressure;Samples;Min_cycle;Max_cycle;Signal;HPM_P1;HPM_P2
2024/01/10 00:01:26;;;;;;;32.75;18.10;;;;;;;-8.77;100.00;102954.72;5051395;28;20805;-83
2024/01/10 00:04:01;;;;;;;36.78;19.50;;;;;;;-8.93;100.00;102953.97;5045572;28;20417;-83
2024/01/10 00:06:34;;;;;;;34.35;18.27;;;;;;;-9.02;100.00;102958.00;5064062;28;20412;-83
2024/01/10 00:09:02;;;;;;;35.00;18.38;;;;;;;-8.96;100.00;102949.72;5079076;28;20430;-83
2024/01/10 00:11:30;;;;;;;44.97;19.13;;;;;;;-8.95;100.00;102940.88;5058574;28;20428;-83
2024/01/10 00:14:04;;;;;;;63.05;21.95;;;;;;;-8.91;100.00;102941.50;5063110;28;21312;-83
2024/01/10 00:16:38;;;;;;;64.55;23.13;;;;;;;-8.94;100.00;102944.34;5047707;28;20434;-83
2024/01/10 00:19:07;;;;;;;51.90;22.85;;;;;;;-9.02;100.00;102943.97;5067354;28;20511;-83
2024/01/10 00:21:40;;;;;;;74.95;23.05;;;;;;;-9.05;100.00;102945.00;5068237;28;20423;-83
2024/01/10 00:24:08;;;;;;;68.72;23.42;;;;;;;-9.05;100.00;102939.72;5055053;28;20408;-83
2024/01/10 00:26:37;;;;;;;74.60;23.02;;;;;;;-9.01;100.00;102943.88;5072703;28;20412;-83
2024/01/10 00:29:05;;;;;;;85.90;22.00;;;;;;;-9.06;100.00;102940.66;5049176;28;20434;-83
2024/01/10 00:31:33;;;;;;;72.40;23.15;;;;;;;-9.05;100.00;102937.09;5063512;28;20421;-83
2024/01/10 00:34:08;;;;;;;64.88;21.83;;;;;;;-8.99;100.00;102941.13;5063271;28;20417;-83
2024/01/10 00:36:36;;;;;;;58.35;19.08;;;;;;;-8.99;100.00;102944.66;5069792;28;20415;-83
2024/01/10 00:39:09;;;;;;;53.65;16.27;;;;;;;-9.00;100.00;102942.94;5053216;28;20470;-83
2024/01/10 00:41:38;;;;;;;49.17;13.60;;;;;;;-8.93;100.00;102938.97;5053094;28;20427;-83
2024/01/10 00:44:06;;;;;;;46.55;12.35;;;;;;;-8.88;100.00;102941.31;5054711;28;20420;-83
2024/01/10 00:46:39;;;;;;;41.47;11.88;;;;;;;-8.86;100.00;102938.56;5052111;28;20435;-83
2024/01/10 00:49:09;;;;;;;29.80;11.98;;;;;;;-8.84;100.00;102942.81;5044733;28;20776;-83
2024/01/10 00:51:37;;;;;;;28.77;12.33;;;;;;;-8.90;100.00;102937.94;5048886;28;20425;-83
2024/01/10 00:54:05;;;;;;;32.28;13.25;;;;;;;-8.94;100.00;102942.53;5052739;28;20419;-83
2024/01/10 00:56:33;;;;;;;54.88;12.88;;;;;;;-8.96;100.00;102943.56;5044978;28;20427;-83
2024/01/10 00:59:06;;;;;;;36.65;12.43;;;;;;;-8.98;100.00;102945.47;5054176;28;20422;-83
2024/01/10 01:01:39;;;;;;;29.30;13.43;;;;;;;-8.95;100.00;102954.06;5050248;28;20425;-83
2024/01/10 01:04:14;;;;;;;32.72;13.77;;;;;;;-9.01;100.00;102958.88;5059827;28;20784;-83
2024/01/10 01:06:42;;;;;;;29.63;13.07;;;;;;;-8.89;100.00;102956.31;5055371;28;20423;-83
2024/01/10 01:09:10;;;;;;;42.33;13.15;;;;;;;-8.95;100.00;102954.06;5063054;28;20423;-83
2024/01/10 01:11:38;;;;;;;28.48;13.23;;;;;;;-8.95;100.00;102963.75;5066210;28;20877;-83
2024/01/10 01:14:06;;;;;;;40.25;12.65;;;;;;;-8.98;100.00;102959.50;5051844;28;20481;-82
2024/01/10 01:16:35;;;;;;;30.98;13.15;;;;;;;-9.06;100.00;102959.13;5049518;28;20784;-83
2024/01/10 01:19:08;;;;;;;23.53;12.47;;;;;;;-9.19;100.00;102953.78;5052841;28;20423;-83
2024/01/10 01:21:37;;;;;;;27.67;13.15;;;;;;;-9.14;100.00;102956.97;5060565;28;20415;-83
2024/01/10 01:24:11;;;;;;;42.42;16.38;;;;;;;-9.35;100.00;102953.84;5050088;28;20425;-83
2024/01/10 01:26:39;;;;;;;38.83;15.85;;;;;;;-9.10;100.00;102947.06;5052335;28;21142;-83
2024/01/10 01:29:12;;;;;;;64.82;16.50;;;;;;;-9.06;100.00;102954.72;5053239;28;20780;-83
2024/01/10 01:31:46;;;;;;;67.72;16.15;;;;;;;-9.19;100.00;102956.41;5050485;28;20407;-83
2024/01/10 01:34:14;;;;;;;81.30;16.75;;;;;;;-9.40;100.00;102958.56;5051010;28;20415;-83
2024/01/10 01:36:51;;;;;;;50.80;16.88;;;;;;;-9.40;100.00;102954.13;5051581;28;20431;-83
2024/01/10 01:39:24;;;;;;;62.50;17.47;;;;;;;-9.30;100.00;102948.31;5051646;28;20446;-84
2024/01/10 01:41:52;;;;;;;59.95;17.48;;;;;;;-9.40;100.00;102948.84;5041770;28;20433;-84
2024/01/10 01:44:25;;;;;;;53.10;18.88;;;;;;;-9.40;100.00;102950.66;5064646;28;20416;-84
2024/01/10 01:46:59;;;;;;;42.05;17.50;;;;;;;-9.26;100.00;102942.75;5052007;28;20807;-84
2024/01/10 01:49:32;;;;;;;39.20;16.60;;;;;;;-9.14;100.00;102949.06;5054639;28;20423;-83
2024/01/10 01:52:02;;;;;;;42.95;16.58;;;;;;;-9.15;100.00;102947.38;5084853;28;20423;-83
2024/01/10 01:54:36;;;;;;;40.63;16.80;;;;;;;-9.18;100.00;102950.19;5049335;28;20423;-83
2024/01/10 01:57:05;;;;;;;43.30;17.67;;;;;;;-9.25;100.00;102948.88;5065191;28;20403;-83
2024/01/10 01:59:38;;;;;;;40.92;18.13;;;;;;;-9.28;100.00;102952.56;5059012;28;20440;-83
2024/01/10 02:02:06;;;;;;;42.53;17.40;;;;;;;-9.19;100.00;102952.94;5058880;28;20434;-84
2024/01/10 02:04:35;;;;;;;41.03;18.65;;;;;;;-9.04;100.00;102944.06;5054791;28;20424;-84
2024/01/10 02:07:09;;;;;;;36.40;16.80;;;;;;;-9.08;100.00;102947.84;5064527;28;20419;-83
2024/01/10 02:09:43;;;;;;;42.92;18.33;;;;;;;-9.10;100.00;102947.06;5064779;28;20426;-84
2024/01/10 02:12:11;;;;;;;39.47;17.27;;;;;;;-8.98;100.00;102953.41;5070543;28;20419;-84
2024/01/10 02:14:44;;;;;;;44.08;18.38;;;;;;;-9.11;100.00;102942.75;5067526;28;20411;-83
2024/01/10 02:17:17;;;;;;;46.47;19.40;;;;;;;-8.91;100.00;102945.03;5050348;28;20432;-83
2024/01/10 02:19:51;;;;;;;45.20;18.08;;;;;;;-8.82;100.00;102946.22;5046660;28;20421;-84
2024/01/10 02:22:20;;;;;;;46.60;20.15;;;;;;;-8.86;100.00;102939.44;5039623;28;20415;-84
2024/01/10 02:24:55;;;;;;;42.90;19.30;;;;;;;-8.98;100.00;102941.03;5051537;28;20430;-84
2024/01/10 02:27:28;;;;;;;43.25;18.95;;;;;;;-9.04;100.00;102941.44;5049770;28;21263;-84
2024/01/10 02:30:03;;;;;;;43.53;19.70;;;;;;;-9.05;100.00;102937.09;5051071;28;21123;-84
2024/01/10 02:32:36;;;;;;;45.22;19.75;;;;;;;-8.95;100.00;102940.88;5049665;28;20424;-84
2024/01/10 02:35:09;;;;;;;43.67;19.45;;;;;;;-8.61;100.00;102930.81;5065838;28;20411;-84
2024/01/10 02:37:43;;;;;;;40.05;18.63;;;;;;;-8.59;100.00;102941.28;5073154;28;20425;-84
2024/01/10 02:40:17;;;;;;;43.28;19.35;;;;;;;-8.64;100.00;102938.94;5072670;28;20757;-84
2024/01/10 02:42:45;;;;;;;42.50;18.65;;;;;;;-8.66;100.00;102943.44;5064185;28;20434;-84
2024/01/10 02:45:14;;;;;;;44.10;18.83;;;;;;;-8.53;100.00;102937.38;5055644;28;20498;-84
2024/01/10 02:47:42;;;;;;;43.15;19.65;;;;;;;-8.55;100.00;102942.78;5068325;28;20428;-84
2024/01/10 02:50:10;;;;;;;43.67;19.42;;;;;;;-8.45;100.00;102930.69;5043335;28;20426;-84
2024/01/10 02:52:44;;;;;;;39.95;18.50;;;;;;;-8.28;100.00;102926.91;5063082;28;20425;-84
2024/01/10 02:55:12;;;;;;;39.85;19.17;;;;;;;-8.34;100.00;102922.03;5054712;28;20425;-84
2024/01/10 02:57:41;;;;;;;42.13;19.38;;;;;;;-8.35;100.00;102912.41;5069313;28;20415;-83
2024/01/10 03:00:11;;;;;;;39.25;19.13;;;;;;;-8.43;100.00;102906.78;5042993;28;20413;-84
2024/01/10 03:02:44;;;;;;;42.30;19.20;;;;;;;-8.22;100.00;102925.66;5051739;28;20416;-84
2024/01/10 03:05:17;;;;;;;40.67;19.50;;;;;;;-8.24;100.00;102925.75;5066335;28;20423;-84
2024/01/10 03:07:45;;;;;;;39.58;17.98;;;;;;;-8.20;100.00;102916.69;5056981;28;20413;-84
2024/01/10 03:10:14;;;;;;;36.78;18.08;;;;;;;-8.16;100.00;102922.63;5039865;28;20433;-84
2024/01/10 03:12:43;;;;;;;39.53;18.15;;;;;;;-8.07;100.00;102926.44;5070566;28;20439;-84
2024/01/10 03:15:16;;;;;;;37.42;18.70;;;;;;;-8.02;100.00;102934.94;5068528;28;20418;-84
2024/01/10 03:17:50;;;;;;;40.83;18.30;;;;;;;-7.98;100.00;102927.63;5059935;28;20427;-84
2024/01/10 03:20:18;;;;;;;39.55;17.67;;;;;;;-7.93;100.00;102925.53;5055921;28;21100;-84
2024/01/10 03:22:46;;;;;;;39.65;18.70;;;;;;;-7.88;100.00;102924.28;5060177;28;20417;-84
2024/01/10 03:25:14;;;;;;;39.65;18.50;;;;;;;-7.82;100.00;102924.81;5047201;28;20784;-84
2024/01/10 03:27:49;;;;;;;38.63;18.58;;;;;;;-7.79;100.00;102928.09;5063113;28;20409;-84
2024/01/10 03:30:24;;;;;;;41.95;19.45;;;;;;;-7.75;100.00;102931.38;5081008;28;20429;-84
2024/01/10 03:32:57;;;;;;;43.83;18.77;;;;;;;-7.73;100.00;102914.47;5056095;28;20424;-84
2024/01/10 03:35:25;;;;;;;42.10;18.90;;;;;;;-7.66;100.00;102906.97;5052946;28;20407;-84
2024/01/10 03:37:53;;;;;;;44.10;19.15;;;;;;;-7.61;100.00;102906.66;5068039;28;20412;-84
2024/01/10 03:40:26;;;;;;;40.83;19.50;;;;;;;-7.54;100.00;102906.13;5079038;28;20411;-84
2024/01/10 03:43:01;;;;;;;42.60;18.75;;;;;;;-7.49;100.00;102903.16;5051799;28;20418;-84
2024/01/10 03:45:29;;;;;;;40.63;19.52;;;;;;;-7.49;100.00;102899.69;5053067;28;20424;-84
2024/01/10 03:47:57;;;;;;;42.50;19.23;;;;;;;-7.44;100.00;102902.84;5055108;28;20434;-84
2024/01/10 03:50:31;;;;;;;42.83;20.08;;;;;;;-7.35;100.00;102899.56;5054031;28;20452;-84
2024/01/10 03:53:04;;;;;;;40.42;18.63;;;;;;;-7.35;100.00;102900.41;5065265;28;20429;-84
2024/01/10 03:55:38;;;;;;;40.55;19.40;;;;;;;-7.32;100.00;102906.44;5065493;28;20424;-85
2024/01/10 03:58:08;;;;;;;40.42;19.23;;;;;;;-7.29;100.00;102896.50;5043586;28;20416;-85
2024/01/10 04:00:41;;;;;;;35.90;18.20;;;;;;;-7.24;100.00;102902.28;5082988;28;20431;-84
2024/01/10 04:03:10;;;;;;;37.83;18.45;;;;;;;-7.22;100.00;102892.47;5049145;28;20422;-84
2024/01/10 04:05:43;;;;;;;39.40;19.13;;;;;;;-7.29;100.00;102901.78;5053799;28;20435;-85
2024/01/10 04:08:11;;;;;;;38.72;19.15;;;;;;;-7.26;100.00;102901.56;5044998;28;20427;-85
2024/01/10 04:10:39;;;;;;;38.33;19.13;;;;;;;-7.22;100.00;102899.53;5068960;28;20415;-85
2024/01/10 04:13:14;;;;;;;39.75;19.38;;;;;;;-7.19;100.00;102891.41;5067697;28;20772;-84
2024/01/10 04:15:47;;;;;;;39.10;20.00;;;;;;;-7.18;100.00;102896.59;5051574;28;20421;-85
2024/01/10 04:18:16;;;;;;;37.33;18.60;;;;;;;-7.11;100.00;102896.13;5059260;28;20416;-85
2024/01/10 04:20:44;;;;;;;40.22;18.90;;;;;;;-7.10;100.00;102893.38;5053255;28;21047;-85
2024/01/10 04:23:12;;;;;;;37.10;18.73;;;;;;;-7.08;100.00;102890.66;5047053;28;20764;-85
2024/01/10 04:25:45;;;;;;;40.17;18.70;;;;;;;-7.05;100.00;102893.06;5065877;28;20461;-85
2024/01/10 04:28:15;;;;;;;40.42;19.42;;;;;;;-7.05;100.00;102883.31;5067132;28;20775;-85
2024/01/10 04:30:43;;;;;;;36.47;18.25;;;;;;;-6.90;100.00;102884.03;5052586;28;20419;-85
2024/01/10 04:33:16;;;;;;;36.55;18.15;;;;;;;-6.73;100.00;102884.63;5064898;28;20914;-85
2024/01/10 04:35:45;;;;;;;37.40;18.23;;;;;;;-6.72;100.00;102881.03;5052752;28;20868;-85
2024/01/10 04:38:13;;;;;;;36.65;17.85;;;;;;;-6.66;100.00;102883.22;5056304;28;20416;-85
2024/01/10 04:40:41;;;;;;;38.20;18.73;;;;;;;-6.73;100.00;102888.09;5046033;28;20428;-84
2024/01/10 04:43:09;;;;;;;41.13;20.40;;;;;;;-6.70;100.00;102885.25;5069164;28;20416;-85
2024/01/10 04:45:39;;;;;;;41.78;19.33;;;;;;;-6.66;100.00;102891.16;5067881;28;20425;-85
2024/01/10 04:48:08;;;;;;;37.75;18.02;;;;;;;-6.38;100.00;102897.09;5052120;28;20432;-85
2024/01/10 04:50:41;;;;;;;42.90;20.77;;;;;;;-6.53;100.00;102896.41;5063378;28;20445;-85
2024/01/10 04:53:09;;;;;;;39.50;17.80;;;;;;;-6.45;100.00;102899.34;5041495;28;20411;-85
2024/01/10 04:55:42;;;;;;;34.92;16.02;;;;;;;-6.39;100.00;102896.25;5050725;28;20424;-85
2024/01/10 04:58:10;;;;;;;36.83;17.52;;;;;;;-6.33;100.00;102897.59;5055056;28;21284;-85
2024/01/10 05:00:40;;;;;;;39.25;18.27;;;;;;;-6.30;100.00;102883.28;5048843;28;20792;-85
2024/01/10 05:03:14;;;;;;;40.70;18.73;;;;;;;-6.21;100.00;102883.44;5070105;28;20931;-85
2024/01/10 05:05:42;;;;;;;35.22;16.98;;;;;;;-6.30;100.00;102876.16;5051548;28;20418;-85
2024/01/10 05:08:11;;;;;;;32.05;15.00;;;;;;;-6.18;100.00;102885.84;5069282;28;20396;-85
2024/01/10 05:10:39;;;;;;;34.60;16.38;;;;;;;-6.27;100.00;102877.75;5058225;28;20421;-85
2024/01/10 05:13:07;;;;;;;27.75;13.43;;;;;;;-6.23;100.00;102881.84;5048017;28;20410;-84
2024/01/10 05:15:42;;;;;;;33.07;13.67;;;;;;;-6.18;100.00;102888.50;5051457;28;20877;-84
2024/01/10 05:18:10;;;;;;;28.02;13.15;;;;;;;-6.02;100.00;102887.34;5041181;28;20409;-85
2024/01/10 05:20:38;;;;;;;35.40;16.10;;;;;;;-6.18;100.00;102885.03;5052084;28;20434;-85
2024/01/10 05:23:11;;;;;;;35.92;17.48;;;;;;;-6.25;100.00;102894.38;5049669;28;20425;-85
2024/01/10 05:25:44;;;;;;;34.78;14.73;;;;;;;-6.11;100.00;102890.72;5069633;28;20434;-85
2024/01/10 05:28:18;;;;;;;37.88;11.90;;;;;;;-6.06;100.00;102886.75;5046800;28;20420;-85
2024/01/10 05:30:47;;;;;;;26.07;10.93;;;;;;;-6.12;100.00;102876.59;5067935;28;20475;-85
2024/01/10 05:33:23;;;;;;;25.73;11.68;;;;;;;-6.13;100.00;102887.31;5052362;28;20411;-85
2024/01/10 05:35:52;;;;;;;28.70;11.13;;;;;;;-6.15;100.00;102882.97;5048078;28;20430;-85
2024/01/10 05:38:25;;;;;;;25.80;10.90;;;;;;;-6.21;100.00;102874.66;5052386;28;20420;-85
2024/01/10 05:40:58;;;;;;;24.60;11.35;;;;;;;-6.20;100.00;102879.84;5052068;28;20510;-85
2024/01/10 05:43:34;;;;;;;30.20;11.40;;;;;;;-6.22;100.00;102876.44;5049274;28;20411;-85
2024/01/10 05:46:09;;;;;;;27.55;12.70;;;;;;;-6.10;100.00;102879.13;5051345;28;20434;-85
2024/01/10 05:48:43;;;;;;;25.60;11.97;;;;;;;-6.04;100.00;102881.31;5053185;28;20423;-85
2024/01/10 05:51:12;;;;;;;24.33;11.27;;;;;;;-6.17;100.00;102876.94;5050900;28;20423;-85
2024/01/10 05:53:40;;;;;;;19.80;9.55;;;;;;;-6.22;100.00;102872.97;5068236;28;20411;-84
2024/01/10 05:56:15;;;;;;;24.65;10.43;;;;;;;-6.23;100.00;102876.56;5048184;28;20416;-85
2024/01/10 05:58:50;;;;;;;24.80;9.65;;;;;;;-6.26;100.00;102872.31;5048938;28;20424;-85
2024/01/10 06:01:20;;;;;;;27.58;9.90;;;;;;;-6.35;100.00;102862.44;5060677;28;21316;-85
2024/01/10 06:03:53;;;;;;;21.52;9.40;;;;;;;-6.03;100.00;102862.66;5065492;28;20431;-84
2024/01/10 06:06:34;;;;;;;24.73;9.80;;;;;;;-5.93;100.00;102859.28;5051467;28;20420;-84
2024/01/10 06:09:02;;;;;;;22.20;9.50;;;;;;;-6.11;100.00;102866.84;5064468;28;20428;-85
2024/01/10 06:11:41;;;;;;;23.60;9.55;;;;;;;-6.17;100.00;102866.34;5060939;28;20428;-85
2024/01/10 06:14:15;;;;;;;23.10;9.80;;;;;;;-6.22;100.00;102865.00;5050082;28;20419;-85
2024/01/10 06:16:47;;;;;;;20.73;9.68;;;;;;;-6.12;100.00;102875.75;5052503;28;20427;-85
2024/01/10 06:19:23;;;;;;;21.42;8.68;;;;;;;-6.25;100.00;102875.84;5053633;28;20444;-85
2024/01/10 06:21:56;;;;;;;21.30;9.57;;;;;;;-5.97;100.00;102865.81;5053475;28;20757;-85
2024/01/10 06:24:29;;;;;;;21.40;9.30;;;;;;;-6.26;100.00;102863.53;5057279;28;20428;-84
2024/01/10 06:26:57;;;;;;;20.42;10.15;;;;;;;-6.24;100.00;102875.72;5084618;28;20449;-85
2024/01/10 06:29:26;;;;;;;19.20;9.50;;;;;;;-6.27;100.00;102873.31;5064551;28;20407;-85
2024/01/10 06:32:01;;;;;;;16.50;8.68;;;;;;;-6.18;100.00;102875.25;5049145;28;20423;-85
2024/01/10 06:34:29;;;;;;;18.15;8.05;;;;;;;-6.28;100.00;102870.75;5051375;28;20419;-84
2024/01/10 06:36:57;;;;;;;18.05;8.50;;;;;;;-6.30;100.00;102868.22;5064940;28;20419;-85
2024/01/10 06:39:31;;;;;;;22.23;8.93;;;;;;;-6.27;100.00;102870.66;5046917;28;20435;-85
2024/01/10 06:42:05;;;;;;;20.73;9.13;;;;;;;-6.26;100.00;102866.19;5056519;28;20472;-85
2024/01/10 06:44:34;;;;;;;18.20;8.73;;;;;;;-6.22;100.00;102863.19;5052898;28;20914;-85
2024/01/10 06:47:04;;;;;;;18.80;9.55;;;;;;;-6.26;100.00;102867.03;5054384;28;20435;-85
2024/01/10 06:49:32;;;;;;;19.63;9.43;;;;;;;-6.28;100.00;102865.44;5067165;28;20415;-85
2024/01/10 06:52:01;;;;;;;18.67;9.05;;;;;;;-6.35;100.00;102873.88;5050391;28;20423;-85
2024/01/10 06:54:29;;;;;;;22.10;10.10;;;;;;;-6.33;100.00;102874.59;5068523;28;20407;-85
2024/01/10 06:56:57;;;;;;;23.10;10.30;;;;;;;-6.28;100.00;102873.41;5050660;28;20946;-84
2024/01/10 06:59:31;;;;;;;32.38;10.10;;;;;;;-6.29;100.00;102867.25;5064094;28;20427;-85
2024/01/10 07:02:06;;;;;;;25.52;9.52;;;;;;;-6.23;100.00;102869.44;5063212;28;20423;-85
2024/01/10 07:04:37;;;;;;;24.20;9.50;;;;;;;-6.34;100.00;102870.25;5069020;28;20422;-85
2024/01/10 07:07:11;;;;;;;28.63;10.38;;;;;;;-6.37;100.00;102866.97;5067106;28;20425;-85
2024/01/10 07:09:40;;;;;;;23.27;9.98;;;;;;;-6.42;100.00;102867.34;5078218;28;20432;-85
2024/01/10 07:12:14;;;;;;;29.55;10.57;;;;;;;-6.44;100.00;102871.88;5062859;28;20437;-85
2024/01/10 07:14:42;;;;;;;20.23;9.50;;;;;;;-6.42;100.00;102871.78;5052247;28;20426;-85
2024/01/10 07:17:11;;;;;;;22.17;9.60;;;;;;;-6.28;100.00;102870.75;5051836;28;20427;-85
2024/01/10 07:19:40;;;;;;;22.25;9.95;;;;;;;-6.37;100.00;102862.53;5047297;28;20416;-85
2024/01/10 07:22:10;;;;;;;19.48;9.50;;;;;;;-6.29;100.00;102869.91;5049976;28;20434;-85
2024/01/10 07:24:38;;;;;;;22.13;8.93;;;;;;;-6.30;100.00;102870.88;5052184;28;20419;-85
2024/01/10 07:27:07;;;;;;;21.45;9.32;;;;;;;-6.38;100.00;102875.88;5056982;28;20444;-85
2024/01/10 07:29:40;;;;;;;18.73;8.88;;;;;;;-6.41;100.00;102861.06;5053135;28;20422;-86
2024/01/10 07:32:11;;;;;;;17.83;8.70;;;;;;;-6.45;100.00;102859.59;5069586;28;20417;-85
2024/01/10 07:34:39;;;;;;;23.05;8.73;;;;;;;-6.30;100.00;102862.09;5049659;28;20426;-85
2024/01/10 07:37:16;;;;;;;28.83;9.57;;;;;;;-6.26;100.00;102861.72;5052701;28;20432;-85
2024/01/10 07:39:50;;;;;;;22.55;8.88;;;;;;;-6.47;100.00;102860.69;5066799;28;20423;-84
2024/01/10 07:42:19;;;;;;;19.08;8.20;;;;;;;-6.50;100.00;102875.00;5052288;28;20420;-84
2024/01/10 07:44:48;;;;;;;20.90;8.82;;;;;;;-6.34;100.00;102878.22;5052466;28;20423;-84
2024/01/10 07:47:19;;;;;;;23.10;9.40;;;;;;;-6.38;100.00;102876.75;5063573;28;20425;-84
2024/01/10 07:49:48;;;;;;;23.98;10.50;;;;;;;-6.32;100.00;102870.16;5045453;28;20425;-84
2024/01/10 07:52:17;;;;;;;25.30;11.18;;;;;;;-6.30;100.00;102878.81;5048069;28;20446;-86
2024/01/10 07:54:45;;;;;;;31.10;12.75;;;;;;;-6.45;100.00;102877.31;5061174;28;20430;-80
2024/01/10 07:57:19;;;;;;;35.87;14.27;;;;;;;-6.47;100.00;102882.72;5051585;28;20465;-80
2024/01/10 07:59:47;;;;;;;37.03;14.27;;;;;;;-6.28;100.00;102886.66;5065377;28;20407;-84
2024/01/10 08:02:21;;;;;;;32.72;12.90;;;;;;;-6.27;100.00;102888.34;5053072;28;20407;-84
2024/01/10 08:04:51;;;;;;;26.90;12.05;;;;;;;-6.23;100.00;102895.94;5046609;28;20791;-85
2024/01/10 08:07:24;;;;;;;28.83;12.40;;;;;;;-6.05;100.00;102893.75;5052611;28;20424;-84
2024/01/10 08:09:52;;;;;;;24.55;10.73;;;;;;;-6.18;100.00;102898.28;5063166;28;20425;-84
2024/01/10 08:12:21;;;;;;;26.83;11.43;;;;;;;-6.17;100.00;102900.81;5054939;28;20411;-84
2024/01/10 08:14:50;;;;;;;28.48;12.50;;;;;;;-6.12;100.00;102891.66;5054926;28;20779;-84
2024/01/10 08:18:07;;;;;;;26.80;11.68;;;;;;;-6.02;100.00;102882.03;5052068;28;20994;-83
2024/01/10 08:20:40;;;;;;;30.48;12.93;;;;;;;-5.93;100.00;102886.63;5061347;28;20529;-86
2024/01/10 08:23:09;;;;;;;27.52;11.88;;;;;;;-5.92;100.00;102884.81;5063317;28;20408;-84
2024/01/10 08:25:44;;;;;;;26.08;11.20;;;;;;;-6.06;100.00;102888.53;5051215;28;20434;-85
2024/01/10 08:28:13;;;;;;;26.75;11.55;;;;;;;-6.05;100.00;102891.09;5016766;28;20430;-85
2024/01/10 08:30:41;;;;;;;27.27;12.37;;;;;;;-6.14;100.00;102886.47;5021792;28;21050;-86
2024/01/10 08:33:11;;;;;;;25.88;12.65;;;;;;;-6.06;100.00;102888.53;5050382;28;20435;-85
2024/01/10 08:35:44;;;;;;;26.10;12.23;;;;;;;-6.00;100.00;102883.63;5044038;28;20895;-86
2024/01/10 08:38:13;;;;;;;24.80;11.52;;;;;;;-5.94;100.00;102879.63;5017390;28;20435;-84
2024/01/10 08:40:47;;;;;;;24.85;10.50;;;;;;;-5.92;100.00;102885.69;5018246;28;20458;-84
2024/01/10 08:43:15;;;;;;;22.80;10.13;;;;;;;-5.86;100.00;102892.31;5024818;28;20458;-84
2024/01/10 08:45:43;;;;;;;24.38;10.48;;;;;;;-5.83;100.00;102892.94;5052455;28;20430;-85
2024/01/10 08:48:13;;;;;;;30.27;12.30;;;;;;;-5.79;100.00;102884.75;5044422;28;20434;-85
2024/01/10 08:50:42;;;;;;;29.45;12.30;;;;;;;-5.76;100.00;102879.19;5049774;28;20412;-84
2024/01/10 08:53:11;;;;;;;26.40;11.48;;;;;;;-5.70;100.00;102879.56;5027146;28;21015;-84
2024/01/10 08:55:39;;;;;;;21.58;9.15;;;;;;;-5.66;100.00;102878.38;5052931;28;20419;-84
2024/01/10 08:58:08;;;;;;;23.35;10.50;;;;;;;-5.59;100.00;102875.22;5031409;28;20438;-85
2024/01/10 09:00:36;;;;;;;28.43;10.90;;;;;;;-5.53;100.00;102878.25;5034723;28;20447;-84
2024/01/10 09:03:05;;;;;;;21.85;9.77;;;;;;;-5.54;100.00;102873.09;5030698;28;20442;-85
2024/01/10 09:05:40;;;;;;;24.97;10.73;;;;;;;-5.45;100.00;102875.03;5034630;28;20436;-84
2024/01/10 09:08:08;;;;;;;24.67;10.40;;;;;;;-5.42;100.00;102877.44;5031111;28;20427;-84
2024/01/10 09:10:38;;;;;;;22.27;8.65;;;;;;;-5.40;100.00;102870.22;5046087;28;20478;-84
2024/01/10 09:13:09;;;;;;;20.63;9.38;;;;;;;-5.44;100.00;102860.81;5035730;28;20419;-85
2024/01/10 09:15:42;;;;;;;28.70;10.55;;;;;;;-5.39;100.00;102868.41;5027089;28;20443;-85
2024/01/10 09:18:11;;;;;;;22.73;9.25;;;;;;;-5.41;100.00;102867.66;5031435;28;20424;-85
2024/01/10 09:20:40;;;;;;;21.38;8.93;;;;;;;-5.44;100.00;102868.75;5030771;28;20908;-84
2024/01/10 09:23:10;;;;;;;21.85;9.43;;;;;;;-5.49;100.00;102863.78;5044335;28;20427;-85
2024/01/10 09:25:43;;;;;;;23.15;10.13;;;;;;;-5.40;100.00;102872.00;5047078;28;20427;-84
2024/01/10 09:28:16;;;;;;;24.17;10.63;;;;;;;-5.42;100.00;102871.28;5024925;28;20427;-84
2024/01/10 09:30:45;;;;;;;21.75;9.70;;;;;;;-5.45;100.00;102875.03;5047276;28;20427;-84
2024/01/10 09:33:13;;;;;;;22.65;9.63;;;;;;;-5.34;100.00;102871.53;5045553;28;22000;-85
2024/01/10 09:35:43;;;;;;;24.55;10.07;;;;;;;-5.45;100.00;102867.06;5028202;28;20443;-84
2024/01/10 09:38:11;;;;;;;24.92;10.73;;;;;;;-5.32;100.00;102859.84;5030106;28;20421;-85
2024/01/10 09:40:39;;;;;;;22.02;9.00;;;;;;;-5.25;100.00;102860.16;5043131;28;20915;-85
2024/01/10 09:43:08;;;;;;;25.13;10.45;;;;;;;-5.26;100.00;102861.16;5038468;28;20428;-84
2024/01/10 09:45:36;;;;;;;22.92;9.43;;;;;;;-5.21;100.00;102851.00;5025108;28;21199;-84
2024/01/10 09:48:05;;;;;;;18.17;7.73;;;;;;;-5.19;100.00;102848.22;5047874;28;20432;-84
2024/01/10 09:50:34;;;;;;;15.93;7.82;;;;;;;-5.16;100.00;102853.31;5047101;28;20435;-84
2024/01/10 09:53:07;;;;;;;15.48;7.28;;;;;;;-5.09;100.00;102845.72;5025433;28;20440;-84
2024/01/10 09:55:38;;;;;;;15.45;7.50;;;;;;;-5.04;100.00;102851.47;5029707;28;20428;-84
2024/01/10 09:58:08;;;;;;;15.00;6.78;;;;;;;-5.09;100.00;102845.72;5046763;28;21256;-83
2024/01/10 10:00:37;;;;;;;12.25;5.80;;;;;;;-4.93;100.00;102847.97;5068546;28;20432;-84
2024/01/10 10:03:11;;;;;;;12.65;5.18;;;;;;;-5.02;100.00;102847.72;5028106;28;21155;-84
2024/01/10 10:05:39;;;;;;;12.57;5.93;;;;;;;-4.87;100.00;102856.28;5032043;28;20919;-84
2024/01/10 10:08:11;;;;;;;12.95;6.05;;;;;;;-4.81;100.00;102854.94;5030397;28;20436;-83
2024/01/10 10:10:44;;;;;;;13.95;6.38;;;;;;;-4.74;100.00;102849.97;5027573;28;20915;-85
2024/01/10 10:13:28;;;;;;;15.52;5.80;;;;;;;-4.75;100.00;102848.28;5041149;28;20421;-84
2024/01/10 10:16:03;;;;;;;11.40;5.25;;;;;;;-4.69;100.00;102845.97;5043056;28;20835;-84
2024/01/10 10:18:32;;;;;;;12.30;6.00;;;;;;;-4.47;100.00;102853.03;5052091;28;20888;-84
2024/01/10 10:21:12;;;;;;;13.27;5.37;;;;;;;-4.64;100.00;102853.56;5025802;28;20444;-85
2024/01/10 10:24:01;;;;;;;13.30;5.45;;;;;;;-4.57;100.00;102854.75;5034854;28;20424;-84
2024/01/10 10:26:35;;;;;;;12.88;5.82;;;;;;;-4.59;100.00;102851.38;5024735;28;20428;-85
2024/01/10 10:29:05;;;;;;;13.07;6.00;;;;;;;-4.47;100.00;102862.81;5000747;28;21969;-85
2024/01/10 10:31:33;;;;;;;15.35;5.97;;;;;;;-4.47;100.00;102854.84;5026320;28;20435;-84
2024/01/10 10:34:07;;;;;;;10.98;5.22;;;;;;;-4.56;100.00;102845.81;5036876;28;20427;-84
2024/01/10 10:36:43;;;;;;;12.75;6.30;;;;;;;-4.53;100.00;102858.00;5027152;28;21051;-85
2024/01/10 10:39:18;;;;;;;15.52;6.80;;;;;;;-4.55;100.00;102867.91;5026553;28;20431;-84
2024/01/10 10:41:49;;;;;;;14.45;6.60;;;;;;;-4.50;100.00;102873.69;5026756;28;20439;-83
2024/01/10 10:44:25;;;;;;;14.48;6.45;;;;;;;-4.39;100.00;102873.66;5047857;28;20438;-83
2024/01/10 10:46:55;;;;;;;13.95;6.40;;;;;;;-4.38;100.00;102867.34;5056381;28;20433;-83
2024/01/10 10:49:31;;;;;;;14.80;6.20;;;;;;;-4.24;100.00;102871.53;5042631;28;20431;-83
2024/01/10 10:52:05;;;;;;;13.02;6.63;;;;;;;-4.24;100.00;102871.53;5043664;28;20439;-82
2024/01/10 10:54:40;;;;;;;17.08;8.00;;;;;;;-4.27;100.00;102867.34;5024820;28;20431;-83
2024/01/10 10:57:15;;;;;;;13.60;6.30;;;;;;;-4.14;100.00;102868.97;5029617;28;20443;-83
2024/01/10 10:59:44;;;;;;;17.08;7.95;;;;;;;-4.13;100.00;102858.22;5026579;28;21792;-83
2024/01/10 11:02:12;;;;;;;14.38;6.65;;;;;;;-4.03;100.00;102860.94;5033769;28;21327;-82
2024/01/10 11:04:45;;;;;;;14.50;6.18;;;;;;;-4.14;100.00;102859.16;5025968;28;20424;-83
2024/01/10 11:07:14;;;;;;;15.18;7.25;;;;;;;-4.25;100.00;102861.03;5026928;28;20431;-83
2024/01/10 11:09:51;;;;;;;19.80;9.13;;;;;;;-4.31;100.00;102859.72;5031405;28;20828;-83
2024/01/10 11:12:41;;;;;;;15.27;7.65;;;;;;;-4.11;100.00;102853.59;5048467;28;20859;-83
2024/01/10 11:15:25;;;;;;;14.65;6.80;;;;;;;-4.06;100.00;102855.88;5027629;28;20420;-83
2024/01/10 11:18:16;;;;;;;15.55;7.60;;;;;;;-3.98;100.00;102864.06;5027245;28;20993;-83
2024/01/10 11:21:01;;;;;;;17.63;8.18;;;;;;;-3.98;100.00;102856.06;5030045;28;20427;-82
2024/01/10 11:23:40;;;;;;;17.35;8.20;;;;;;;-3.89;100.00;102849.13;5044069;28;20423;-83